createdAt,value
2023-01-15T00:00:18.454Z,63.50
2023-01-15T00:02:44.876Z,63.18
2023-01-15T00:05:11.290Z,63.17
2023-01-15T00:07:37.635Z,62.94
2023-01-15T00:10:04.406Z,63.00
2023-01-15T00:12:30.767Z,63.20
2023-01-15T00:14:58.242Z,63.18
2023-01-15T00:17:24.905Z,62.91
2023-01-15T00:19:51.213Z,63.33
2023-01-15T00:22:17.544Z,63.11
2023-01-15T00:25:02.250Z,62.70
2023-01-15T00:27:40.502Z,62.94
2023-01-15T00:30:10.820Z,63.09
2023-01-15T00:32:37.187Z,62.56
2023-01-15T00:35:03.731Z,62.94
2023-01-15T00:37:30.058Z,63.04
2023-01-15T00:39:56.565Z,63.20
2023-01-15T00:42:22.974Z,63.01
2023-01-15T00:44:49.650Z,62.74
2023-01-15T00:47:16.023Z,62.91
2023-01-15T00:49:43.034Z,62.96
2023-01-15T00:52:10.417Z,62.95
2023-01-15T00:54:36.961Z,62.97
2023-01-15T00:57:03.411Z,62.65
2023-01-15T00:59:29.751Z,62.72
2023-01-15T01:01:56.312Z,62.46
2023-01-15T01:04:22.716Z,62.60
2023-01-15T01:06:49.061Z,62.58
2023-01-15T01:09:16.703Z,62.48
2023-01-15T01:11:43.636Z,62.56
2023-01-15T01:14:11.541Z,62.51
2023-01-15T01:16:40.094Z,62.44
2023-01-15T01:19:10.406Z,62.51
2023-01-15T01:21:38.535Z,62.50
2023-01-15T01:24:05.630Z,62.33
2023-01-15T01:26:32.226Z,62.44
2023-01-15T01:28:58.595Z,62.65
2023-01-15T01:31:25.256Z,62.88
2023-01-15T01:33:54.040Z,62.72
2023-01-15T01:36:25.723Z,62.25
2023-01-15T01:38:52.326Z,62.25
2023-01-15T01:41:19.270Z,62.27
2023-01-15T01:44:02.225Z,62.32
2023-01-15T01:46:34.253Z,62.09
2023-01-15T01:49:08.200Z,62.21
2023-01-15T01:51:40.188Z,62.38
2023-01-15T01:54:09.708Z,62.50
2023-01-15T01:56:36.582Z,62.64
2023-01-15T01:59:05.498Z,62.52
2023-01-15T02:01:32.075Z,62.39
2023-01-15T02:03:58.898Z,62.78
2023-01-15T02:06:27.023Z,62.85
2023-01-15T02:08:54.404Z,62.22
2023-01-15T02:11:23.278Z,62.87
2023-01-15T02:13:59.470Z,62.54
2023-01-15T02:16:36.758Z,62.55
2023-01-15T02:19:03.174Z,62.66
2023-01-15T02:21:35.867Z,62.60
2023-01-15T02:24:18.769Z,62.77
2023-01-15T02:27:00.451Z,62.85
2023-01-15T02:29:32.936Z,62.72
2023-01-15T02:32:05.615Z,63.26
2023-01-15T02:34:36.577Z,62.98
2023-01-15T02:37:16.834Z,63.17
2023-01-15T02:39:47.395Z,63.10
2023-01-15T02:42:16.158Z,62.62
2023-01-15T02:44:49.123Z,62.72
2023-01-15T02:47:19.032Z,63.17
2023-01-15T02:49:47.842Z,62.83
2023-01-15T02:52:21.444Z,63.13
2023-01-15T02:54:53.102Z,63.06
2023-01-15T02:57:21.876Z,63.03
2023-01-15T02:59:50.063Z,63.14
2023-01-15T03:02:26.884Z,62.92
2023-01-15T03:05:02.491Z,62.70
2023-01-15T03:07:36.929Z,62.83
2023-01-15T03:10:06.294Z,62.77
2023-01-15T03:12:58.740Z,62.83
2023-01-15T03:15:50.589Z,62.73
2023-01-15T03:18:21.709Z,62.91
2023-01-15T03:20:53.202Z,62.52
2023-01-15T03:23:24.231Z,62.84
2023-01-15T03:25:51.471Z,62.46
2023-01-15T03:28:23.575Z,62.49
2023-01-15T03:30:50.107Z,61.93
2023-01-15T03:33:16.499Z,62.32
2023-01-15T03:36:00.717Z,62.24
2023-01-15T03:38:37.249Z,62.14
2023-01-15T03:41:25.592Z,61.89
2023-01-15T03:44:16.219Z,62.17
2023-01-15T03:47:24.491Z,62.06
2023-01-15T03:50:01.277Z,61.93
2023-01-15T03:52:46.468Z,61.80
2023-01-15T03:55:25.122Z,62.00
2023-01-15T03:57:59.084Z,62.10
2023-01-15T04:00:32.578Z,61.49
2023-01-15T04:03:03.846Z,61.72
2023-01-15T04:05:31.884Z,61.76
2023-01-15T04:07:59.655Z,61.44
2023-01-15T04:10:26.088Z,61.43
2023-01-15T04:12:52.518Z,61.87
2023-01-15T04:15:19.335Z,61.77
2023-01-15T04:17:45.784Z,61.47
2023-01-15T04:20:12.743Z,61.53
2023-01-15T04:22:39.583Z,61.43
2023-01-15T04:25:07.355Z,61.35
2023-01-15T04:27:33.815Z,61.18
2023-01-15T04:30:00.457Z,61.29
2023-01-15T04:32:27.391Z,61.11
2023-01-15T04:34:54.048Z,61.46
2023-01-15T04:37:20.414Z,61.15
2023-01-15T04:39:46.949Z,61.10
2023-01-15T04:42:32.940Z,61.33
2023-01-15T04:44:59.474Z,61.28
2023-01-15T04:47:25.960Z,61.13
2023-01-15T04:49:52.384Z,61.17
2023-01-15T04:52:18.962Z,60.94
2023-01-15T04:54:45.457Z,60.73
2023-01-15T04:57:12.165Z,61.15
2023-01-15T04:59:38.779Z,61.15
2023-01-15T05:02:06.776Z,60.65
2023-01-15T05:04:34.560Z,60.83
2023-01-15T05:07:03.353Z,60.88
2023-01-15T05:09:30.646Z,60.70
2023-01-15T05:11:57.474Z,60.49
2023-01-15T05:14:24.178Z,60.42
2023-01-15T05:16:50.738Z,60.53
2023-01-15T05:19:17.271Z,60.52
2023-01-15T05:21:45.138Z,60.68
2023-01-15T05:24:17.275Z,61.28
2023-01-15T05:26:44.599Z,60.98
2023-01-15T05:29:12.029Z,61.08
2023-01-15T05:31:39.507Z,61.30
2023-01-15T05:34:06.037Z,61.04
2023-01-15T05:36:32.873Z,61.15
2023-01-15T05:39:01.570Z,61.06
2023-01-15T05:41:48.159Z,61.09
2023-01-15T05:47:19.920Z,60.65
2023-01-15T05:49:48.433Z,60.75
2023-01-15T05:52:14.871Z,60.90
2023-01-15T05:54:41.460Z,60.84
2023-01-15T05:57:11.692Z,61.13
2023-01-15T05:59:38.964Z,60.94
2023-01-15T06:02:05.878Z,61.09
2023-01-15T06:04:32.368Z,61.18
2023-01-15T06:06:59.249Z,60.58
2023-01-15T06:09:27.965Z,60.64
2023-01-15T06:11:55.351Z,60.79
2023-01-15T06:14:21.856Z,60.56
2023-01-15T06:16:48.333Z,60.65
2023-01-15T06:19:15.088Z,61.04
2023-01-15T06:21:41.865Z,60.66
2023-01-15T06:24:08.903Z,60.87
2023-01-15T06:26:50.503Z,60.84
2023-01-15T06:29:18.922Z,60.66
2023-01-15T06:31:45.957Z,60.72
2023-01-15T06:34:12.597Z,60.35
2023-01-15T06:36:39.135Z,61.01
2023-01-15T06:39:05.745Z,60.78
2023-01-15T06:41:50.813Z,60.88
2023-01-15T06:44:37.222Z,60.56
2023-01-15T06:47:23.213Z,60.85
2023-01-15T06:49:59.108Z,60.57
2023-01-15T06:52:26.769Z,60.45
2023-01-15T06:54:53.549Z,60.58
2023-01-15T06:57:20.425Z,60.67
2023-01-15T06:59:48.361Z,60.21
2023-01-15T07:02:14.741Z,60.25
2023-01-15T07:04:41.118Z,60.48
2023-01-15T07:07:07.470Z,60.38
2023-01-15T07:09:33.933Z,60.22
2023-01-15T07:12:00.392Z,60.36
2023-01-15T07:14:31.155Z,60.42
2023-01-15T07:16:59.120Z,60.27
2023-01-15T07:19:26.120Z,60.02
2023-01-15T07:21:52.469Z,60.52
2023-01-15T07:24:18.865Z,60.32
2023-01-15T07:26:46.064Z,59.93
2023-01-15T07:29:12.820Z,60.33
2023-01-15T07:31:40.729Z,60.22
2023-01-15T07:34:07.386Z,60.22
2023-01-15T07:36:33.764Z,60.07
2023-01-15T07:39:00.151Z,59.67
2023-01-15T07:41:45.201Z,59.69
2023-01-15T07:44:30.488Z,59.60
2023-01-15T07:47:15.832Z,59.36
2023-01-15T07:49:46.464Z,59.40
2023-01-15T07:52:22.771Z,59.21
2023-01-15T07:54:50.367Z,59.21
2023-01-15T07:57:20.242Z,59.13
2023-01-15T07:59:46.798Z,59.00
2023-01-15T08:02:13.510Z,58.94
2023-01-15T08:04:40.294Z,59.13
2023-01-15T08:07:06.865Z,58.88
2023-01-15T08:09:33.309Z,58.75
2023-01-15T08:12:19.488Z,58.64
2023-01-15T08:15:04.751Z,58.43
2023-01-15T08:17:34.757Z,58.84
2023-01-15T08:20:02.204Z,58.25
2023-01-15T08:22:28.713Z,58.18
2023-01-15T08:24:55.097Z,58.24
2023-01-15T08:27:21.465Z,58.23
2023-01-15T08:29:47.847Z,58.26
2023-01-15T08:32:14.193Z,58.17
2023-01-15T08:34:40.710Z,58.09
2023-01-15T08:37:07.070Z,58.03
2023-01-15T08:39:33.646Z,57.98
2023-01-15T08:42:00.148Z,58.35
2023-01-15T08:44:26.564Z,58.20
2023-01-15T08:46:53.479Z,58.09
2023-01-15T08:49:21.052Z,57.90
2023-01-15T08:51:51.441Z,58.14
2023-01-15T08:54:20.077Z,57.95
2023-01-15T08:56:47.008Z,57.99
2023-01-15T08:59:14.012Z,58.18
2023-01-15T09:01:41.036Z,57.88
2023-01-15T09:04:07.595Z,58.39
2023-01-15T09:06:34.057Z,58.02
2023-01-15T09:09:00.464Z,57.70
2023-01-15T09:11:27.343Z,58.02
2023-01-15T09:13:54.438Z,57.87
2023-01-15T09:16:21.088Z,57.76
2023-01-15T09:18:47.686Z,57.62
2023-01-15T09:21:14.444Z,57.80
2023-01-15T09:23:40.862Z,58.20
2023-01-15T09:26:08.127Z,58.16
2023-01-15T09:28:35.489Z,58.43
2023-01-15T09:31:02.065Z,57.88
2023-01-15T09:33:28.677Z,58.26
2023-01-15T09:35:55.073Z,58.18
2023-01-15T09:38:21.844Z,57.24
2023-01-15T09:40:57.599Z,56.72
2023-01-15T09:43:58.722Z,56.60
2023-01-15T09:46:54.771Z,55.49
2023-01-15T09:49:44.853Z,56.25
2023-01-15T09:52:22.233Z,55.40
2023-01-15T09:54:57.711Z,55.86
2023-01-15T09:57:25.448Z,55.08
2023-01-15T09:59:54.648Z,55.23
2023-01-15T10:02:29.064Z,55.45
2023-01-15T10:05:09.860Z,55.53
2023-01-15T10:07:50.880Z,55.56
2023-01-15T10:10:23.139Z,55.07
2023-01-15T10:12:54.494Z,54.99
2023-01-15T10:15:39.112Z,55.22
2023-01-15T10:18:08.866Z,54.58
2023-01-15T10:20:42.901Z,54.40
2023-01-15T10:23:15.057Z,53.94
2023-01-15T10:26:03.503Z,53.48
2023-01-15T10:28:46.204Z,54.29
2023-01-15T10:31:20.997Z,54.05
2023-01-15T10:34:18.508Z,53.38
2023-01-15T10:37:31.386Z,53.20
2023-01-15T10:40:35.553Z,52.45
2023-01-15T10:43:17.085Z,52.79
2023-01-15T10:45:51.922Z,52.81
2023-01-15T10:48:24.935Z,52.93
2023-01-15T10:50:51.945Z,53.31
2023-01-15T10:53:31.483Z,53.07
2023-01-15T10:56:20.793Z,52.93
2023-01-15T10:58:56.842Z,53.09
2023-01-15T11:01:27.223Z,52.64
2023-01-15T11:03:54.335Z,52.21
2023-01-15T11:06:23.326Z,52.19
2023-01-15T11:09:09.070Z,52.27
2023-01-15T11:12:01.486Z,50.78
2023-01-15T11:14:57.711Z,51.69
2023-01-15T11:17:50.937Z,52.07
2023-01-15T11:20:43.322Z,51.86
2023-01-15T11:23:13.611Z,52.02
2023-01-15T11:25:49.969Z,51.81
2023-01-15T11:28:17.130Z,51.93
2023-01-15T11:30:45.225Z,51.48
2023-01-15T11:33:27.888Z,51.57
2023-01-15T11:35:59.503Z,51.29
2023-01-15T11:38:31.613Z,51.30
2023-01-15T11:41:05.257Z,51.59
2023-01-15T11:43:50.855Z,51.52
2023-01-15T11:46:46.512Z,51.40
2023-01-15T11:49:39.768Z,51.55
2023-01-15T11:52:15.935Z,51.57
2023-01-15T11:54:46.392Z,51.51
2023-01-15T11:57:31.145Z,51.54
2023-01-15T11:59:58.324Z,51.20
2023-01-15T12:02:46.759Z,51.39
2023-01-15T12:05:19.433Z,51.54
2023-01-15T12:07:47.797Z,51.39
2023-01-15T12:11:00.027Z,51.34
2023-01-15T12:13:40.081Z,51.35
2023-01-15T12:16:18.859Z,51.34
2023-01-15T12:18:54.349Z,51.82
2023-01-15T12:21:37.755Z,51.45
2023-01-15T12:24:37.398Z,51.58
2023-01-15T12:27:37.917Z,51.47
2023-01-15T12:30:21.562Z,51.39
2023-01-15T12:32:58.628Z,50.95
2023-01-15T12:35:31.518Z,51.02
2023-01-15T12:38:22.633Z,51.49
2023-01-15T12:40:56.458Z,51.31
2023-01-15T12:43:45.617Z,51.16
2023-01-15T12:46:19.077Z,51.61
2023-01-15T12:48:51.703Z,51.35
2023-01-15T12:51:27.018Z,51.09
2023-01-15T12:53:59.094Z,51.15
2023-01-15T12:56:32.997Z,51.00
2023-01-15T12:59:25.426Z,51.34
2023-01-15T13:02:13.496Z,51.20
2023-01-15T13:04:48.604Z,51.55
2023-01-15T13:07:36.158Z,51.61
2023-01-15T13:10:10.879Z,51.88
2023-01-15T13:12:37.272Z,51.63
2023-01-15T13:15:05.092Z,51.81
2023-01-15T13:17:46.886Z,51.90
2023-01-15T13:20:20.269Z,51.83
2023-01-15T13:23:04.621Z,51.85
2023-01-15T13:26:02.996Z,51.58
2023-01-15T13:28:52.117Z,51.90
2023-01-15T13:31:51.921Z,51.96
2023-01-15T13:34:41.499Z,51.64
2023-01-15T13:37:32.640Z,51.46
2023-01-15T13:40:04.613Z,52.02
2023-01-15T13:42:32.044Z,51.49
2023-01-15T13:45:02.759Z,51.62
2023-01-15T13:47:32.273Z,51.59
2023-01-15T13:50:04.892Z,51.49
2023-01-15T13:52:33.687Z,51.22
2023-01-15T13:55:09.225Z,51.48
2023-01-15T13:57:38.261Z,51.50
2023-01-15T14:00:29.403Z,51.77
2023-01-15T14:02:59.151Z,51.96
2023-01-15T14:05:30.041Z,51.47
2023-01-15T14:07:57.186Z,51.73
2023-01-15T14:10:32.936Z,51.62
2023-01-15T14:13:37.830Z,51.59
2023-01-15T14:16:34.155Z,51.48
2023-01-15T14:19:10.524Z,52.18
2023-01-15T14:22:09.199Z,52.11
2023-01-15T14:25:12.620Z,52.22
2023-01-15T14:28:02.112Z,51.98
2023-01-15T14:30:50.283Z,52.37
2023-01-15T14:33:53.908Z,52.78
2023-01-15T14:36:26.401Z,52.99
2023-01-15T14:38:57.900Z,53.01
2023-01-15T14:41:30.635Z,52.97
2023-01-15T14:43:59.826Z,53.35
2023-01-15T14:46:32.539Z,53.79
2023-01-15T14:48:59.082Z,53.46
2023-01-15T14:51:28.713Z,53.57
2023-01-15T14:54:18.380Z,53.86
2023-01-15T14:56:50.187Z,53.62
2023-01-15T14:59:25.599Z,53.64
2023-01-15T15:01:53.080Z,53.60
2023-01-15T15:04:36.841Z,53.68
2023-01-15T15:07:25.271Z,53.48
2023-01-15T15:10:01.662Z,53.88
2023-01-15T15:12:53.255Z,53.47
2023-01-15T15:15:25.748Z,53.42
2023-01-15T15:18:01.170Z,53.55
2023-01-15T15:20:34.034Z,54.01
2023-01-15T15:23:31.071Z,53.79
2023-01-15T15:26:01.002Z,54.10
2023-01-15T15:28:28.551Z,54.01
2023-01-15T15:31:01.234Z,54.37
2023-01-15T15:33:45.956Z,54.48
2023-01-15T15:36:12.569Z,54.56
2023-01-15T15:38:42.143Z,54.71
2023-01-15T15:41:12.725Z,54.45
2023-01-15T15:44:09.477Z,54.93
2023-01-15T15:46:54.337Z,54.87
2023-01-15T15:49:21.066Z,55.23
2023-01-15T15:51:51.914Z,55.18
2023-01-15T15:54:30.628Z,55.17
2023-01-15T15:57:17.928Z,55.54
2023-01-15T15:59:51.116Z,55.39
2023-01-15T16:02:34.355Z,55.85
2023-01-15T16:05:21.622Z,55.51
2023-01-15T16:07:48.014Z,55.90
2023-01-15T16:10:18.441Z,55.95
2023-01-15T16:12:57.715Z,55.79
2023-01-15T16:15:29.376Z,55.79
2023-01-15T16:17:57.866Z,56.12
2023-01-15T16:20:25.482Z,56.02
2023-01-15T16:22:58.802Z,55.88
2023-01-15T16:25:43.348Z,56.11
2023-01-15T16:28:27.369Z,56.19
2023-01-15T16:30:58.854Z,56.16
2023-01-15T16:33:26.156Z,56.55
2023-01-15T16:35:58.159Z,56.46
2023-01-15T16:38:25.957Z,56.66
2023-01-15T16:40:53.070Z,56.42
2023-01-15T16:43:22.745Z,56.82
2023-01-15T16:46:16.917Z,56.97
2023-01-15T16:48:47.795Z,57.00
2023-01-15T16:51:32.142Z,57.35
2023-01-15T16:54:02.034Z,57.61
2023-01-15T16:56:51.961Z,57.58
2023-01-15T16:59:40.588Z,57.89
2023-01-15T17:02:20.868Z,57.97
2023-01-15T17:04:48.509Z,58.11
2023-01-15T17:07:37.483Z,58.18
2023-01-15T17:10:06.856Z,58.23
2023-01-15T17:12:38.419Z,58.28
2023-01-15T17:15:16.804Z,57.92
2023-01-15T17:17:51.083Z,58.09
2023-01-15T17:20:19.115Z,57.92
2023-01-15T17:22:49.031Z,57.94
2023-01-15T17:25:24.756Z,57.49
2023-01-15T17:27:51.249Z,57.23
2023-01-15T17:30:17.987Z,56.90
2023-01-15T17:32:44.797Z,56.83
2023-01-15T17:35:24.776Z,57.06
2023-01-15T17:37:51.428Z,56.28
2023-01-15T17:40:18.091Z,56.33
2023-01-15T17:42:44.803Z,56.41
2023-01-15T17:45:22.675Z,56.35
2023-01-15T17:47:49.857Z,56.02
2023-01-15T17:50:17.328Z,56.05
2023-01-15T17:52:44.330Z,56.25
2023-01-15T17:55:31.385Z,55.74
2023-01-15T17:58:16.301Z,55.97
2023-01-15T18:01:01.406Z,55.86
2023-01-15T18:03:47.676Z,55.22
2023-01-15T18:06:15.482Z,55.91
2023-01-15T18:08:46.116Z,55.68
2023-01-15T18:11:12.463Z,55.62
2023-01-15T18:13:41.866Z,55.61
2023-01-15T18:16:08.795Z,55.58
2023-01-15T18:18:35.334Z,55.48
2023-01-15T18:21:02.948Z,55.55
2023-01-15T18:23:30.652Z,55.48
2023-01-15T18:25:56.983Z,55.34
2023-01-15T18:28:23.320Z,55.57
2023-01-15T18:30:49.765Z,55.34
2023-01-15T18:33:16.132Z,55.48
2023-01-15T18:35:42.484Z,55.30
2023-01-15T18:38:08.809Z,55.33
2023-01-15T18:40:35.164Z,55.16
2023-01-15T18:43:19.883Z,55.33
2023-01-15T18:46:06.140Z,55.16
2023-01-15T18:48:32.488Z,55.60
2023-01-15T18:51:00.126Z,55.56
2023-01-15T18:53:26.596Z,55.33
2023-01-15T18:55:52.919Z,55.36
2023-01-15T18:58:19.331Z,55.04
2023-01-15T19:00:45.679Z,55.45
2023-01-15T19:03:12.052Z,55.20
2023-01-15T19:05:38.489Z,55.38
2023-01-15T19:08:05.018Z,55.31
2023-01-15T19:10:31.443Z,55.16
2023-01-15T19:12:57.936Z,54.84
2023-01-15T19:15:42.967Z,55.25
2023-01-15T19:18:29.336Z,55.32
2023-01-15T19:20:55.719Z,55.35
2023-01-15T19:23:22.236Z,55.81
2023-01-15T19:25:49.398Z,55.39
2023-01-15T19:28:18.350Z,55.62
2023-01-15T19:31:09.748Z,55.32
2023-01-15T19:33:36.307Z,55.44
2023-01-15T19:36:03.617Z,55.15
2023-01-15T19:38:30.240Z,55.37
2023-01-15T19:41:16.586Z,55.22
2023-01-15T19:44:01.607Z,55.44
2023-01-15T19:46:46.541Z,55.16
2023-01-15T19:49:38.069Z,55.24
2023-01-15T19:52:23.253Z,55.23
2023-01-15T19:54:56.041Z,55.08
2023-01-15T19:57:22.372Z,55.29
2023-01-15T19:59:49.395Z,55.07
2023-01-15T20:02:16.023Z,55.35
2023-01-15T20:04:45.472Z,55.42
2023-01-15T20:07:12.369Z,55.01
2023-01-15T20:09:42.579Z,55.41
2023-01-15T20:12:31.017Z,54.85
2023-01-15T20:14:57.825Z,55.00
2023-01-15T20:17:24.514Z,55.12
2023-01-15T20:19:50.851Z,55.26
2023-01-15T20:22:17.216Z,55.11
2023-01-15T20:24:44.350Z,55.16
2023-01-15T20:27:12.204Z,55.24
2023-01-15T20:29:41.534Z,55.07
2023-01-15T20:32:07.985Z,55.26
2023-01-15T20:34:39.164Z,55.18
2023-01-15T20:37:06.677Z,55.21
2023-01-15T20:39:33.079Z,55.19
2023-01-15T20:42:18.545Z,55.27
2023-01-15T20:44:53.794Z,55.16
2023-01-15T20:47:41.404Z,55.13
2023-01-15T20:50:09.709Z,55.17
2023-01-15T20:52:37.032Z,55.16
2023-01-15T20:55:06.274Z,55.29
2023-01-15T20:57:40.444Z,55.10
2023-01-15T21:00:14.099Z,55.67
2023-01-15T21:02:40.568Z,54.93
2023-01-15T21:05:08.456Z,55.09
2023-01-15T21:07:35.997Z,54.98
2023-01-15T21:10:03.791Z,54.88
2023-01-15T21:12:30.236Z,55.18
2023-01-15T21:14:56.699Z,55.16
2023-01-15T21:17:23.103Z,55.34
2023-01-15T21:19:49.532Z,54.90
2023-01-15T21:22:16.081Z,55.28
2023-01-15T21:24:42.875Z,55.08
2023-01-15T21:27:09.199Z,55.22
2023-01-15T21:29:35.523Z,55.25
2023-01-15T21:32:01.896Z,54.90
2023-01-15T21:34:28.236Z,55.27
2023-01-15T21:36:54.702Z,55.23
2023-01-15T21:39:21.113Z,55.26
2023-01-15T21:42:08.745Z,55.44
2023-01-15T21:44:36.185Z,55.47
2023-01-15T21:47:05.851Z,55.38
2023-01-15T21:49:33.468Z,55.02
2023-01-15T21:52:01.219Z,55.26
2023-01-15T21:54:28.256Z,55.32
2023-01-15T21:56:55.096Z,55.38
2023-01-15T21:59:22.220Z,55.20
2023-01-15T22:01:49.462Z,55.48
2023-01-15T22:04:16.454Z,55.31
2023-01-15T22:06:42.796Z,55.61
2023-01-15T22:09:09.152Z,55.42
2023-01-15T22:11:46.255Z,55.78
2023-01-15T22:14:18.693Z,55.88
2023-01-15T22:16:45.778Z,55.45
2023-01-15T22:19:19.945Z,56.01
2023-01-15T22:21:50.424Z,55.70
2023-01-15T22:24:18.899Z,55.71
2023-01-15T22:26:53.444Z,55.85
2023-01-15T22:29:40.962Z,55.96
2023-01-15T22:32:09.536Z,55.64
2023-01-15T22:34:35.933Z,55.87
2023-01-15T22:37:02.462Z,55.71
2023-01-15T22:39:29.422Z,55.64
2023-01-15T22:42:14.675Z,55.67
2023-01-15T22:44:43.371Z,55.81
2023-01-15T22:47:09.697Z,55.94
2023-01-15T22:49:36.122Z,55.88
2023-01-15T22:52:03.492Z,55.94
2023-01-15T22:54:29.885Z,55.94
2023-01-15T22:56:56.358Z,55.79
2023-01-15T22:59:24.014Z,56.28
2023-01-15T23:01:50.474Z,56.13
2023-01-15T23:04:22.633Z,56.03
2023-01-15T23:06:53.181Z,56.33
2023-01-15T23:09:22.529Z,56.40
2023-01-15T23:11:51.225Z,56.33
2023-01-15T23:14:18.989Z,56.51
2023-01-15T23:16:45.407Z,56.17
2023-01-15T23:19:12.282Z,56.31
2023-01-15T23:21:39.948Z,56.28
2023-01-15T23:24:06.862Z,56.27
2023-01-15T23:26:34.475Z,56.29
2023-01-15T23:29:01.215Z,56.06
2023-01-15T23:31:28.159Z,55.76
2023-01-15T23:33:55.146Z,56.03
2023-01-15T23:36:22.365Z,55.87
2023-01-15T23:38:48.763Z,55.92
2023-01-15T23:41:41.259Z,55.83
2023-01-15T23:44:37.694Z,56.15
2023-01-15T23:47:04.843Z,55.98
2023-01-15T23:49:31.251Z,55.52
2023-01-15T23:51:57.941Z,56.12
2023-01-15T23:54:28.487Z,55.83
2023-01-15T23:56:56.097Z,55.79
2023-01-15T23:59:22.679Z,55.92
